createdAt,value
2022-11-11T00:01:28.185Z,8.80
2022-11-11T00:04:13.598Z,8.92
2022-11-11T00:06:59.291Z,8.93
2022-11-11T00:09:45.008Z,8.84
2022-11-11T00:12:30.482Z,8.77
2022-11-11T00:15:15.892Z,8.62
2022-11-11T00:18:19.900Z,8.82
2022-11-11T00:21:24.341Z,8.75
2022-11-11T00:24:48.467Z,8.80
2022-11-11T00:27:35.454Z,8.88
2022-11-11T00:30:21.773Z,8.92
2022-11-11T00:33:07.139Z,8.97
2022-11-11T00:35:54.556Z,8.91
2022-11-11T00:38:48.273Z,8.78
2022-11-11T00:41:34.066Z,8.76
2022-11-11T00:44:19.868Z,8.82
2022-11-11T00:47:24.266Z,8.86
2022-11-11T00:50:47.671Z,8.78
2022-11-11T00:53:35.464Z,8.80
2022-11-11T00:56:21.845Z,8.68
2022-11-11T00:59:09.027Z,8.77
2022-11-11T01:01:54.470Z,8.69
2022-11-11T01:04:39.982Z,8.66
2022-11-11T01:07:25.819Z,8.77
2022-11-11T01:10:11.631Z,8.77
2022-11-11T01:13:12.352Z,8.71
2022-11-11T01:16:07.058Z,8.71
2022-11-11T01:18:53.695Z,8.77
2022-11-11T01:21:39.388Z,8.77
2022-11-11T01:24:25.068Z,8.83
2022-11-11T01:27:10.361Z,8.79
2022-11-11T01:29:56.054Z,8.71
2022-11-11T01:32:42.196Z,8.71
2022-11-11T01:35:28.116Z,8.62
2022-11-11T01:38:14.207Z,8.78
2022-11-11T01:40:59.809Z,8.75
2022-11-11T01:43:45.095Z,8.82
2022-11-11T01:46:53.781Z,8.83
2022-11-11T01:50:05.857Z,8.75
2022-11-11T01:52:51.651Z,8.80
2022-11-11T01:55:37.542Z,8.84
2022-11-11T01:58:23.218Z,8.88
2022-11-11T02:01:09.350Z,8.87
2022-11-11T02:04:17.828Z,8.89
2022-11-11T02:07:07.863Z,8.87
2022-11-11T02:09:54.392Z,8.85
2022-11-11T02:12:58.689Z,8.86
2022-11-11T02:15:45.082Z,8.83
2022-11-11T02:18:33.333Z,8.73
2022-11-11T02:21:32.857Z,8.78
2022-11-11T02:24:21.682Z,8.86
2022-11-11T02:27:12.238Z,8.79
2022-11-11T02:30:02.158Z,8.73
2022-11-11T02:32:49.999Z,8.76
2022-11-11T02:35:38.676Z,8.70
2022-11-11T02:38:26.497Z,8.83
2022-11-11T02:41:30.961Z,8.87
2022-11-11T02:44:16.482Z,8.80
2022-11-11T02:47:02.226Z,8.75
2022-11-11T02:49:48.093Z,8.74
2022-11-11T02:52:34.040Z,8.72
2022-11-11T02:55:19.925Z,8.75
2022-11-11T02:58:05.543Z,8.72
2022-11-11T03:00:51.132Z,8.80
2022-11-11T03:03:36.976Z,8.89
2022-11-11T03:06:22.294Z,8.94
2022-11-11T03:09:08.173Z,8.85
2022-11-11T03:11:53.798Z,8.88
2022-11-11T03:14:39.422Z,8.96
2022-11-11T03:17:40.647Z,8.96
2022-11-11T03:20:45.387Z,8.83
2022-11-11T03:23:31.026Z,8.86
2022-11-11T03:26:16.265Z,8.90
2022-11-11T03:29:01.937Z,8.88
2022-11-11T03:31:47.464Z,8.90
2022-11-11T03:34:33.196Z,8.94
2022-11-11T03:37:37.511Z,8.83
2022-11-11T03:40:23.238Z,8.83
2022-11-11T03:43:09.211Z,8.89
2022-11-11T03:45:56.901Z,8.85
2022-11-11T03:48:42.542Z,8.90
2022-11-11T03:51:27.995Z,8.85
2022-11-11T03:54:13.822Z,8.90
2022-11-11T03:57:18.295Z,8.87
2022-11-11T04:00:12.031Z,8.89
2022-11-11T04:03:38.282Z,8.72
2022-11-11T04:06:42.655Z,8.89
2022-11-11T04:09:47.172Z,8.82
2022-11-11T04:12:55.383Z,8.90
2022-11-11T04:15:59.385Z,8.98
2022-11-11T04:19:03.736Z,9.03
2022-11-11T04:21:50.167Z,8.98
2022-11-11T04:24:54.610Z,9.08
2022-11-11T04:27:40.321Z,9.08
2022-11-11T04:30:25.974Z,9.07
2022-11-11T04:33:11.209Z,9.10
2022-11-11T04:35:56.854Z,9.07
2022-11-11T04:39:01.290Z,8.99
2022-11-11T04:42:07.227Z,8.96
2022-11-11T04:45:11.086Z,8.89
2022-11-11T04:48:03.772Z,8.94
2022-11-11T04:50:49.419Z,8.94
2022-11-11T04:53:34.835Z,8.91
2022-11-11T04:56:39.284Z,8.86
2022-11-11T04:59:24.877Z,9.01
2022-11-11T05:02:28.863Z,9.07
2022-11-11T05:05:14.777Z,9.08
2022-11-11T05:08:18.945Z,9.07
2022-11-11T05:11:04.464Z,9.14
2022-11-11T05:14:09.868Z,9.01
2022-11-11T05:17:16.369Z,9.05
2022-11-11T05:20:20.970Z,8.98
2022-11-11T05:23:06.584Z,9.03
2022-11-11T05:25:52.440Z,9.03
2022-11-11T05:28:37.939Z,9.05
2022-11-11T05:31:23.891Z,9.08
2022-11-11T05:34:09.548Z,9.03
2022-11-11T05:36:55.047Z,9.03
2022-11-11T05:39:40.417Z,9.00
2022-11-11T05:42:25.944Z,9.05
2022-11-11T05:45:11.512Z,9.04
2022-11-11T05:48:01.629Z,9.10
2022-11-11T05:50:47.671Z,9.14
2022-11-11T05:53:34.197Z,9.15
2022-11-11T05:56:20.012Z,9.16
2022-11-11T05:59:07.192Z,9.15
2022-11-11T06:01:53.153Z,9.24
2022-11-11T06:04:38.607Z,9.13
2022-11-11T06:07:24.469Z,9.09
2022-11-11T06:10:39.956Z,9.15
2022-11-11T06:13:25.938Z,9.11
2022-11-11T06:16:11.385Z,9.23
2022-11-11T06:18:57.307Z,9.33
2022-11-11T06:21:58.158Z,9.30
2022-11-11T06:25:03.876Z,9.29
2022-11-11T06:27:49.540Z,9.36
2022-11-11T06:30:49.474Z,9.38
2022-11-11T06:33:36.812Z,9.46
2022-11-11T06:36:22.693Z,9.28
2022-11-11T06:39:08.217Z,9.36
2022-11-11T06:41:54.025Z,9.37
2022-11-11T06:44:39.795Z,9.40
2022-11-11T06:47:25.054Z,9.33
2022-11-11T06:50:10.756Z,9.45
2022-11-11T06:52:56.592Z,9.43
2022-11-11T06:55:42.571Z,9.36
2022-11-11T06:58:28.409Z,9.33
2022-11-11T07:01:14.550Z,9.38
2022-11-11T07:04:00.013Z,9.43
2022-11-11T07:06:45.195Z,9.44
2022-11-11T07:09:30.993Z,9.41
2022-11-11T07:12:16.506Z,9.43
2022-11-11T07:15:01.846Z,9.21
2022-11-11T07:17:47.051Z,9.31
2022-11-11T07:20:32.823Z,9.38
2022-11-11T07:23:18.357Z,9.36
2022-11-11T07:26:03.817Z,9.52
2022-11-11T07:28:50.917Z,9.56
2022-11-11T07:31:36.732Z,9.53
2022-11-11T07:34:22.071Z,9.67
2022-11-11T07:37:07.135Z,9.65
2022-11-11T07:39:52.427Z,9.68
2022-11-11T07:42:42.222Z,9.70
2022-11-11T07:45:27.552Z,9.72
2022-11-11T07:48:13.278Z,9.69
2022-11-11T07:50:58.340Z,9.58
2022-11-11T07:53:44.062Z,9.68
2022-11-11T07:56:29.734Z,9.67
2022-11-11T07:59:15.565Z,9.64
2022-11-11T08:02:01.242Z,9.56
2022-11-11T08:04:52.389Z,9.68
2022-11-11T08:07:42.601Z,9.56
2022-11-11T08:10:28.326Z,9.67
2022-11-11T08:13:32.912Z,9.59
2022-11-11T08:16:18.605Z,9.66
2022-11-11T08:19:04.397Z,9.63
2022-11-11T08:21:49.706Z,9.48
2022-11-11T08:27:40.740Z,9.83
2022-11-11T08:30:26.170Z,9.80
2022-11-11T08:33:32.285Z,9.70
2022-11-11T08:36:20.782Z,9.74
2022-11-11T08:39:07.233Z,9.73
2022-11-11T08:41:52.678Z,9.68
2022-11-11T08:44:38.150Z,9.71
2022-11-11T08:47:25.102Z,9.71
2022-11-11T08:50:11.143Z,9.66
2022-11-11T08:52:57.727Z,9.70
2022-11-11T08:55:43.402Z,9.83
2022-11-11T08:58:29.078Z,9.95
2022-11-11T09:01:15.595Z,9.93
2022-11-11T09:04:16.725Z,9.88
2022-11-11T09:07:08.296Z,9.84
2022-11-11T09:09:53.724Z,9.95
2022-11-11T09:12:39.895Z,9.95
2022-11-11T09:15:26.573Z,9.86
2022-11-11T09:18:12.279Z,9.89
2022-11-11T09:21:00.921Z,9.99
2022-11-11T09:23:46.535Z,10.03
2022-11-11T09:26:31.751Z,10.07
2022-11-11T09:29:17.990Z,10.10
2022-11-11T09:32:03.493Z,10.07
2022-11-11T09:34:48.715Z,9.95
2022-11-11T09:37:34.489Z,9.97
2022-11-11T09:40:23.688Z,10.07
2022-11-11T09:43:33.140Z,10.14
2022-11-11T09:46:47.601Z,10.04
2022-11-11T09:49:51.859Z,9.91
2022-11-11T09:52:43.418Z,9.87
2022-11-11T09:56:31.334Z,10.06
2022-11-11T09:59:22.593Z,10.14
2022-11-11T10:02:19.538Z,10.18
2022-11-11T10:05:20.410Z,10.12
2022-11-11T10:08:43.583Z,10.29
2022-11-11T10:11:51.123Z,10.42
2022-11-11T10:14:40.329Z,10.38
2022-11-11T10:17:37.613Z,10.41
2022-11-11T10:20:38.279Z,10.25
2022-11-11T10:23:32.472Z,10.23
2022-11-11T10:26:37.526Z,10.26
2022-11-11T10:29:26.583Z,10.32
2022-11-11T10:32:22.318Z,10.34
2022-11-11T10:35:20.095Z,10.34
2022-11-11T10:38:17.523Z,10.32
2022-11-11T10:41:25.459Z,10.35
2022-11-11T10:44:21.533Z,10.29
2022-11-11T10:47:56.310Z,10.31
2022-11-11T10:50:44.426Z,10.25
2022-11-11T10:54:03.245Z,10.03
2022-11-11T10:56:57.327Z,10.21
2022-11-11T11:00:02.290Z,10.15
2022-11-11T11:02:50.669Z,10.18
2022-11-11T11:05:48.416Z,10.24
2022-11-11T11:08:46.151Z,10.28
2022-11-11T11:11:41.875Z,10.30
2022-11-11T11:14:36.822Z,10.27
2022-11-11T11:17:33.677Z,10.26
2022-11-11T11:20:21.087Z,10.17
2022-11-11T11:23:06.792Z,9.93
2022-11-11T11:25:56.909Z,10.03
2022-11-11T11:29:01.844Z,9.85
2022-11-11T11:31:47.824Z,9.92
2022-11-11T11:34:46.777Z,9.84
2022-11-11T11:37:32.510Z,9.89
2022-11-11T11:40:18.498Z,9.95
2022-11-11T11:43:27.093Z,9.97
2022-11-11T11:46:27.495Z,10.00
2022-11-11T11:49:22.563Z,10.09
2022-11-11T11:52:26.390Z,10.03
2022-11-11T11:55:12.132Z,10.16
2022-11-11T11:58:18.200Z,10.02
2022-11-11T12:01:10.614Z,9.92
2022-11-11T12:03:56.305Z,9.95
2022-11-11T12:06:47.879Z,9.95
2022-11-11T12:09:48.020Z,9.99
2022-11-11T12:12:45.991Z,9.91
2022-11-11T12:15:40.664Z,9.91
2022-11-11T12:18:31.875Z,9.98
2022-11-11T12:21:24.616Z,10.01
2022-11-11T12:24:18.626Z,10.00
2022-11-11T12:27:18.226Z,10.03
2022-11-11T12:30:28.801Z,9.94
2022-11-11T12:33:20.151Z,10.02
2022-11-11T12:36:10.926Z,10.09
2022-11-11T12:39:27.609Z,10.12
2022-11-11T12:42:18.778Z,10.15
2022-11-11T12:45:24.523Z,10.12
2022-11-11T12:48:24.870Z,10.13
2022-11-11T12:51:10.361Z,10.12
2022-11-11T12:54:02.052Z,10.16
2022-11-11T12:57:16.022Z,10.18
2022-11-11T13:00:20.734Z,10.12
2022-11-11T13:03:40.204Z,10.05
2022-11-11T13:07:01.602Z,10.06
2022-11-11T13:10:25.644Z,10.00
2022-11-11T13:13:35.574Z,9.87
2022-11-11T13:16:24.543Z,9.74
2022-11-11T13:19:22.100Z,9.91
2022-11-11T13:22:29.712Z,9.84
2022-11-11T13:25:26.379Z,9.78
2022-11-11T13:28:25.084Z,9.86
2022-11-11T13:31:30.273Z,9.86
2022-11-11T13:34:16.558Z,9.93
2022-11-11T13:37:05.953Z,9.98
2022-11-11T13:39:57.709Z,9.98
2022-11-11T13:42:51.028Z,10.02
2022-11-11T13:45:43.435Z,9.92
2022-11-11T13:48:33.969Z,10.00
2022-11-11T13:51:39.571Z,9.99
2022-11-11T13:54:29.855Z,9.95
2022-11-11T13:57:21.219Z,9.90
2022-11-11T14:00:29.021Z,9.98
2022-11-11T14:03:14.098Z,9.96
2022-11-11T14:06:14.168Z,9.94
2022-11-11T14:09:00.150Z,9.83
2022-11-11T14:11:45.901Z,9.90
2022-11-11T14:14:37.230Z,9.75
2022-11-11T14:17:23.265Z,9.84
2022-11-11T14:20:30.273Z,9.86
2022-11-11T14:23:18.595Z,9.84
2022-11-11T14:26:06.942Z,9.94
2022-11-11T14:28:55.070Z,9.98
2022-11-11T14:31:52.757Z,10.01
2022-11-11T14:34:50.478Z,9.94
2022-11-11T14:37:57.230Z,9.80
2022-11-11T14:40:42.814Z,9.95
2022-11-11T14:43:38.296Z,9.99
2022-11-11T14:46:24.059Z,9.96
2022-11-11T14:49:09.756Z,9.95
2022-11-11T14:52:00.015Z,9.91
2022-11-11T14:55:03.684Z,10.02
2022-11-11T14:57:51.164Z,9.89
2022-11-11T15:00:50.371Z,9.89
2022-11-11T15:03:50.055Z,9.88
2022-11-11T15:06:59.873Z,9.80
2022-11-11T15:09:47.879Z,9.85
2022-11-11T15:13:02.939Z,9.81
2022-11-11T15:15:59.473Z,9.75
2022-11-11T15:18:53.477Z,9.88
2022-11-11T15:21:56.795Z,9.86
2022-11-11T15:24:48.105Z,9.85
2022-11-11T15:27:42.370Z,9.86
2022-11-11T15:31:05.220Z,9.74
2022-11-11T15:34:18.294Z,9.77
2022-11-11T15:37:09.644Z,9.74
2022-11-11T15:39:57.893Z,9.68
2022-11-11T15:42:50.132Z,9.71
2022-11-11T15:45:36.736Z,9.71
2022-11-11T15:48:30.012Z,9.61
2022-11-11T15:51:31.397Z,9.65
2022-11-11T15:54:19.286Z,9.71
2022-11-11T15:57:33.433Z,9.70
2022-11-11T16:00:24.747Z,9.66
2022-11-11T16:03:36.211Z,9.76
2022-11-11T16:06:22.439Z,9.73
2022-11-11T16:09:12.631Z,9.70
2022-11-11T16:11:58.907Z,9.76
2022-11-11T16:14:48.233Z,9.71
2022-11-11T16:17:40.857Z,9.76
2022-11-11T16:20:44.507Z,9.69
2022-11-11T16:23:30.751Z,9.75
2022-11-11T16:26:17.394Z,9.71
2022-11-11T16:29:03.013Z,9.74
2022-11-11T16:31:48.486Z,9.83
2022-11-11T16:34:36.323Z,9.62
2022-11-11T16:37:22.362Z,9.57
2022-11-11T16:40:26.481Z,9.59
2022-11-11T16:43:15.964Z,9.48
2022-11-11T16:46:03.566Z,9.52
2022-11-11T16:48:52.173Z,9.39
2022-11-11T16:51:39.849Z,9.22
2022-11-11T16:54:30.215Z,9.22
2022-11-11T16:57:21.850Z,9.16
2022-11-11T17:00:13.918Z,9.20
2022-11-11T17:03:17.135Z,9.16
2022-11-11T17:06:07.973Z,9.10
2022-11-11T17:08:53.911Z,9.13
2022-11-11T17:11:39.363Z,9.05
2022-11-11T17:14:30.174Z,9.14
2022-11-11T17:17:15.994Z,9.17
2022-11-11T17:20:05.059Z,9.15
2022-11-11T17:22:58.486Z,9.10
2022-11-11T17:25:44.684Z,9.15
2022-11-11T17:28:36.058Z,9.21
2022-11-11T17:31:21.888Z,9.28
2022-11-11T17:34:08.768Z,9.38
2022-11-11T17:36:53.966Z,9.19
2022-11-11T17:39:43.273Z,9.05
2022-11-11T17:42:31.367Z,9.09
2022-11-11T17:45:17.360Z,9.20
2022-11-11T17:48:02.996Z,9.05
2022-11-11T17:50:48.689Z,9.11
2022-11-11T17:53:36.530Z,9.18
2022-11-11T17:56:22.087Z,9.20
2022-11-11T17:59:10.493Z,9.19
2022-11-11T18:01:56.212Z,9.18
2022-11-11T18:04:42.023Z,9.31
2022-11-11T18:07:27.603Z,9.31
2022-11-11T18:10:14.422Z,9.20
2022-11-11T18:13:00.152Z,9.24
2022-11-11T18:15:45.597Z,9.30
2022-11-11T18:18:32.179Z,9.35
2022-11-11T18:21:17.769Z,9.31
2022-11-11T18:24:06.883Z,9.33
2022-11-11T18:26:52.375Z,9.34
2022-11-11T18:29:38.225Z,9.35
2022-11-11T18:32:23.797Z,9.34
2022-11-11T18:35:09.563Z,9.41
2022-11-11T18:37:55.325Z,9.46
2022-11-11T18:40:40.798Z,9.39
2022-11-11T18:43:26.862Z,9.38
2022-11-11T18:46:24.010Z,9.39
2022-11-11T18:49:13.012Z,9.30
2022-11-11T18:51:58.926Z,9.38
2022-11-11T18:54:44.041Z,9.48
2022-11-11T18:57:31.378Z,9.35
2022-11-11T19:00:17.119Z,9.34
2022-11-11T19:03:03.047Z,9.46
2022-11-11T19:05:48.421Z,9.36
2022-11-11T19:08:35.122Z,9.42
2022-11-11T19:11:20.493Z,9.33
2022-11-11T19:14:07.011Z,9.41
2022-11-11T19:16:52.385Z,9.40
2022-11-11T19:19:37.997Z,9.39
2022-11-11T19:22:23.776Z,9.40
2022-11-11T19:25:09.936Z,9.41
2022-11-11T19:27:55.666Z,9.42
2022-11-11T19:30:41.678Z,9.29
2022-11-11T19:33:27.142Z,9.43
2022-11-11T19:36:19.387Z,9.31
2022-11-11T19:39:05.200Z,9.39
2022-11-11T19:41:51.098Z,9.46
2022-11-11T19:44:36.643Z,9.54
2022-11-11T19:47:22.397Z,9.49
2022-11-11T19:50:08.498Z,9.51
2022-11-11T19:52:53.701Z,9.50
2022-11-11T19:55:39.777Z,9.47
2022-11-11T19:58:25.294Z,9.54
2022-11-11T20:01:21.829Z,9.58
2022-11-11T20:04:07.463Z,9.55
2022-11-11T20:06:52.925Z,9.57
2022-11-11T20:09:38.584Z,9.45
2022-11-11T20:12:23.981Z,9.55
2022-11-11T20:15:09.796Z,9.56
2022-11-11T20:17:54.938Z,9.52
2022-11-11T20:20:40.414Z,9.50
2022-11-11T20:23:25.933Z,9.37
2022-11-11T20:26:14.325Z,9.39
2022-11-11T20:28:59.864Z,9.49
2022-11-11T20:31:45.532Z,9.49
2022-11-11T20:34:31.424Z,9.47
2022-11-11T20:37:16.877Z,9.39
2022-11-11T20:40:02.817Z,9.36
2022-11-11T20:42:48.163Z,9.48
2022-11-11T20:45:33.405Z,9.45
2022-11-11T20:48:19.089Z,9.46
2022-11-11T20:51:16.444Z,9.38
2022-11-11T20:54:01.944Z,9.37
2022-11-11T20:56:49.206Z,9.13
2022-11-11T20:59:35.013Z,9.14
2022-11-11T21:02:24.104Z,9.11
2022-11-11T21:05:09.824Z,9.07
2022-11-11T21:07:55.220Z,9.03
2022-11-11T21:10:40.693Z,9.12
2022-11-11T21:13:27.389Z,9.15
2022-11-11T21:16:17.657Z,9.17
2022-11-11T21:19:04.388Z,9.18
2022-11-11T21:21:49.820Z,9.09
2022-11-11T21:24:36.256Z,9.18
2022-11-11T21:27:21.722Z,9.07
2022-11-11T21:30:07.623Z,8.99
2022-11-11T21:32:53.426Z,9.11
2022-11-11T21:35:38.612Z,9.16
2022-11-11T21:38:24.174Z,9.24
2022-11-11T21:41:12.613Z,9.19
2022-11-11T21:43:58.876Z,9.30
2022-11-11T21:46:44.231Z,9.29
2022-11-11T21:49:29.842Z,9.19
2022-11-11T21:52:15.160Z,9.28
2022-11-11T21:55:00.879Z,9.18
2022-11-11T21:57:46.001Z,9.18
2022-11-11T22:00:31.137Z,9.19
2022-11-11T22:03:16.971Z,9.26
2022-11-11T22:06:13.211Z,9.21
2022-11-11T22:08:59.898Z,9.25
2022-11-11T22:11:45.099Z,9.22
2022-11-11T22:14:30.696Z,9.34
2022-11-11T22:17:16.307Z,9.37
2022-11-11T22:20:02.006Z,9.32
2022-11-11T22:22:47.737Z,9.29
2022-11-11T22:25:33.555Z,9.34
2022-11-11T22:28:19.311Z,9.26
2022-11-11T22:31:28.209Z,9.29
2022-11-11T22:34:14.753Z,9.40
2022-11-11T22:37:00.209Z,9.24
2022-11-11T22:39:45.479Z,9.45
2022-11-11T22:42:31.494Z,9.44
2022-11-11T22:45:17.018Z,9.42
2022-11-11T22:48:02.667Z,9.46
2022-11-11T22:50:47.904Z,9.46
2022-11-11T22:53:33.360Z,9.51
2022-11-11T22:56:19.857Z,9.36
2022-11-11T22:59:05.108Z,9.47
2022-11-11T23:01:50.652Z,9.34
2022-11-11T23:04:36.147Z,9.38
2022-11-11T23:07:21.779Z,9.47
2022-11-11T23:10:08.029Z,9.46
2022-11-11T23:12:58.472Z,9.55
2022-11-11T23:15:56.060Z,9.55
2022-11-11T23:18:41.946Z,9.44
2022-11-11T23:21:28.768Z,9.44
2022-11-11T23:24:14.213Z,9.49
2022-11-11T23:26:59.484Z,9.40
2022-11-11T23:29:49.774Z,9.53
2022-11-11T23:32:37.646Z,9.58
2022-11-11T23:35:23.234Z,9.64
2022-11-11T23:38:09.175Z,9.66
2022-11-11T23:40:54.523Z,9.59
2022-11-11T23:43:40.006Z,9.65
2022-11-11T23:46:25.791Z,9.71
2022-11-11T23:49:11.246Z,9.69
2022-11-11T23:51:56.902Z,9.69
2022-11-11T23:54:42.558Z,9.73
2022-11-11T23:57:27.918Z,9.73
